Portada
METAR-TAF:

METAR-TAF

Aeroports :

Krasnoiarsk, Rússia

latitud: 56-10-18N, longitud: 092-29-36E, altitud: 287 m

Observació

L'informe es va fer fa 26 minuts, a les 11:30 UTC
Vent 6 kt del Est/Nord-Est
Temperatura 27°C
Humitat 58%
Pressió 1008 hPa
Visibilitat 10 km o més
sense núvols per sota de 1500 mi sense presència de cumulonimbus.

METAR: UNKL 231130Z 07003MPS CAVOK 27/18 Q1008 R11/CLRD65 NOSIG RMK QFE731

Hora: 18:56 (11:56 UTC)

Pronòstic

L'informe es va fer fa 1 hora i 14 minuts, a les 10:42 UTC
Pronòstic vàlid del 23 a les 12 UTC al 24 a les 12 UTC
Vent 6 kt del Est amb ràfegues de 16 kt
Visibilitat 10 km o més
Núvols disperses a una alçada de 1800 ft, Cumulonimbus.
Temporalment
l' 23 a les 12 UTC al 23 a les 15 UTC
tempesta, pluja,

TAF: UNKL 231042Z 2312/2412 10003G08MPS 9999 SCT018CB TEMPO 2312/2315 -TSRA

Observacions i pronòstics meteorològics de més de 4000 aeroports (METAR i TAF).

Les estacions disponibles són els punts grocs i vermells al mapa.

Posi el ratolí al punt desitjat per veure el nom de l'estació.

Feu clic per veure les observacions i els pronòstics meteorològics.

Per canviar el mapa: feu clic els botons verds amb una creu de color negre per apropar; al botó verd amb un guió per allunyar la imatge; o en les fletxes verdes per a mapes adjacents.


METAR-TAF: